Time,TemperatureF,DewpointF,PressureIn,WindDirection,WindDirectionDegrees,WindSpeedMPH,WindSpeedGustMPH,Humidity,HourlyPrecipIn,Conditions,Clouds,dailyrainin,SolarRadiationWatts/m^2,SoftwareType,DateUTC
2013-12-03 00:02:00,51.0,37.0,-100.00,SSE,154,3.0,9.0,58,0.00,,,0.00,0.000000,,2013-12-03 06:02:00,
2013-12-03 00:42:00,47.0,39.0,-100.00,SW,233,2.0,5.0,73,0.00,,,0.00,0.000000,,2013-12-03 06:42:00,
2013-12-03 00:53:00,47.0,39.0,-100.00,SW,233,2.0,5.0,73,0.00,,,0.00,0.000000,,2013-12-03 06:53:00,
2013-12-03 01:02:00,47.0,39.0,-100.00,SW,233,2.0,5.0,73,0.00,,,0.00,0.000000,,2013-12-03 07:02:00,
2013-12-03 01:42:00,48.0,41.0,-100.00,South,188,3.0,6.0,78,0.00,,,0.00,0.000000,,2013-12-03 07:42:00,
2013-12-03 01:52:00,48.0,41.0,-100.00,South,188,3.0,6.0,78,0.00,,,0.00,0.000000,,2013-12-03 07:52:00,
2013-12-03 02:02:00,48.0,41.0,-100.00,South,188,3.0,6.0,78,0.00,,,0.00,0.000000,,2013-12-03 08:02:00,
2013-12-03 02:42:00,44.0,40.0,-100.00,SSW,212,2.0,4.0,87,0.00,,,0.00,0.000000,,2013-12-03 08:42:00,
2013-12-03 02:53:00,44.0,40.0,-100.00,SSW,212,2.0,4.0,87,0.00,,,0.00,0.000000,,2013-12-03 08:53:00,
2013-12-03 03:01:00,44.0,40.0,-100.00,SSW,212,2.0,4.0,87,0.00,,,0.00,0.000000,,2013-12-03 09:01:00,
2013-12-03 03:43:00,44.0,41.0,-100.00,SW,229,4.0,5.0,89,0.00,,,0.00,0.000000,,2013-12-03 09:43:00,
2013-12-03 03:54:00,44.0,41.0,-100.00,SW,229,4.0,5.0,89,0.00,,,0.00,0.000000,,2013-12-03 09:54:00,
2013-12-03 04:03:00,44.0,41.0,-100.00,SW,229,4.0,5.0,89,0.00,,,0.00,0.000000,,2013-12-03 10:03:00,
2013-12-03 04:42:00,46.0,43.0,-100.00,SW,233,3.0,5.0,88,0.00,,,0.00,0.000000,,2013-12-03 10:42:00,
2013-12-03 04:53:00,46.0,43.0,-100.00,SW,233,3.0,5.0,88,0.00,,,0.00,0.000000,,2013-12-03 10:53:00,
2013-12-03 05:03:00,46.0,43.0,-100.00,SW,233,3.0,5.0,88,0.00,,,0.00,0.000000,,2013-12-03 11:03:00,
2013-12-03 05:42:00,46.0,43.0,-100.00,South,189,3.0,7.0,89,0.00,,,0.00,0.000000,,2013-12-03 11:42:00,
2013-12-03 05:52:00,46.0,43.0,-100.00,South,189,3.0,7.0,89,0.00,,,0.00,0.000000,,2013-12-03 11:52:00,
2013-12-03 06:02:00,46.0,43.0,-100.00,South,189,3.0,7.0,89,0.00,,,0.00,0.000000,,2013-12-03 12:02:00,
2013-12-03 06:42:00,43.0,40.0,-100.00,South,173,2.0,5.0,89,0.00,,,0.00,0.000000,,2013-12-03 12:42:00,
2013-12-03 06:52:00,43.0,40.0,-100.00,South,173,2.0,5.0,89,0.00,,,0.00,0.000000,,2013-12-03 12:52:00,
2013-12-03 07:02:00,43.0,40.0,-100.00,South,173,2.0,5.0,89,0.00,,,0.00,0.000000,,2013-12-03 13:02:00,
2013-12-03 07:42:00,42.0,40.0,-100.00,West,276,1.0,5.0,91,0.00,,,0.00,0.000000,,2013-12-03 13:42:00,
2013-12-03 07:52:00,42.0,40.0,-100.00,West,276,1.0,5.0,91,0.00,,,0.00,0.000000,,2013-12-03 13:52:00,
2013-12-03 08:02:00,42.0,40.0,-100.00,West,276,1.0,5.0,91,0.00,,,0.00,0.000000,,2013-12-03 14:02:00,
2013-12-03 08:42:00,50.0,47.0,-100.00,SSW,197,5.0,8.0,91,0.00,,,0.00,41.000000,,2013-12-03 14:42:00,
2013-12-03 08:52:00,50.0,47.0,-100.00,SSW,197,5.0,8.0,91,0.00,,,0.00,41.000000,,2013-12-03 14:52:00,
2013-12-03 09:02:00,50.0,47.0,-100.00,SSW,197,5.0,8.0,91,0.00,,,0.00,41.000000,,2013-12-03 15:02:00,
2013-12-03 09:44:00,56.0,40.0,-100.00,SSW,204,6.0,11.0,55,0.00,,,0.00,178.000000,,2013-12-03 15:44:00,
2013-12-03 09:54:00,56.0,40.0,-100.00,SSW,204,6.0,11.0,55,0.00,,,0.00,178.000000,,2013-12-03 15:54:00,
2013-12-03 10:04:00,56.0,40.0,-100.00,SSW,204,6.0,11.0,55,0.00,,,0.00,178.000000,,2013-12-03 16:04:00,
2013-12-03 10:43:00,61.0,43.0,-100.00,SSW,198,6.0,12.0,51,0.00,,,0.00,400.000000,,2013-12-03 16:43:00,
2013-12-03 10:52:00,61.0,43.0,-100.00,SSW,198,6.0,12.0,51,0.00,,,0.00,400.000000,,2013-12-03 16:52:00,
2013-12-03 11:02:00,61.0,43.0,-100.00,SSW,198,6.0,12.0,51,0.00,,,0.00,400.000000,,2013-12-03 17:02:00,
2013-12-03 11:42:00,67.0,43.0,-100.00,SW,216,6.0,12.0,42,0.00,,,0.00,442.000000,,2013-12-03 17:42:00,
2013-12-03 11:53:00,67.0,43.0,-100.00,SW,216,6.0,12.0,42,0.00,,,0.00,442.000000,,2013-12-03 17:53:00,
2013-12-03 12:02:00,67.0,43.0,-100.00,SW,216,6.0,12.0,42,0.00,,,0.00,442.000000,,2013-12-03 18:02:00,
2013-12-03 12:42:00,69.0,35.0,-100.00,WSW,239,7.0,11.0,29,0.00,,,0.00,438.000000,,2013-12-03 18:42:00,
2013-12-03 12:53:00,69.0,35.0,-100.00,WSW,239,7.0,11.0,29,0.00,,,0.00,438.000000,,2013-12-03 18:53:00,
2013-12-03 13:02:00,69.0,35.0,-100.00,WSW,239,7.0,11.0,29,0.00,,,0.00,438.000000,,2013-12-03 19:02:00,
2013-12-03 13:42:00,73.0,35.0,-100.00,SW,228,6.0,12.0,25,0.00,,,0.00,500.000000,,2013-12-03 19:42:00,
2013-12-03 13:52:00,73.0,35.0,-100.00,SW,228,6.0,12.0,25,0.00,,,0.00,500.000000,,2013-12-03 19:52:00,
2013-12-03 14:02:00,73.0,35.0,-100.00,SW,228,6.0,12.0,25,0.00,,,0.00,500.000000,,2013-12-03 20:02:00,
2013-12-03 14:42:00,74.0,36.0,-100.00,SSW,195,6.0,11.0,25,0.00,,,0.00,440.000000,,2013-12-03 20:42:00,
2013-12-03 14:53:00,74.0,36.0,-100.00,SSW,195,6.0,11.0,25,0.00,,,0.00,440.000000,,2013-12-03 20:53:00,
2013-12-03 15:02:00,74.0,36.0,-100.00,SSW,195,6.0,11.0,25,0.00,,,0.00,440.000000,,2013-12-03 21:02:00,
2013-12-03 15:44:00,77.0,36.0,-100.00,SSW,212,5.0,11.0,23,0.00,,,0.00,390.000000,,2013-12-03 21:44:00,
2013-12-03 15:54:00,77.0,36.0,-100.00,SSW,212,5.0,11.0,23,0.00,,,0.00,390.000000,,2013-12-03 21:54:00,
2013-12-03 16:03:00,77.0,36.0,-100.00,SSW,212,5.0,11.0,23,0.00,,,0.00,390.000000,,2013-12-03 22:03:00,
2013-12-03 16:43:00,76.0,34.0,-100.00,South,186,3.0,8.0,22,0.00,,,0.00,219.000000,,2013-12-03 22:43:00,
2013-12-03 16:53:00,76.0,34.0,-100.00,South,186,3.0,8.0,22,0.00,,,0.00,219.000000,,2013-12-03 22:53:00,
2013-12-03 17:02:00,76.0,34.0,-100.00,South,186,3.0,8.0,22,0.00,,,0.00,219.000000,,2013-12-03 23:02:00,
2013-12-03 17:42:00,67.0,38.0,-100.00,SSE,148,3.0,5.0,34,0.00,,,-99.99,68.000000,,2013-12-03 23:42:00,
2013-12-03 17:52:00,67.0,38.0,-100.00,SSE,148,3.0,5.0,34,0.00,,,-99.99,68.000000,,2013-12-03 23:52:00,
2013-12-03 18:02:00,67.0,38.0,-100.00,SSE,148,3.0,5.0,34,0.00,,,-99.99,68.000000,,2013-12-04 00:02:00,
2013-12-03 18:42:00,68.0,37.0,-100.00,South,172,5.0,10.0,32,0.00,,,0.00,4.000000,,2013-12-04 00:42:00,
2013-12-03 18:52:00,68.0,37.0,-100.00,South,172,5.0,10.0,32,0.00,,,0.00,4.000000,,2013-12-04 00:52:00,
2013-12-03 19:02:00,68.0,37.0,-100.00,South,172,5.0,10.0,32,0.00,,,0.00,4.000000,,2013-12-04 01:02:00,
2013-12-03 19:42:00,71.0,35.0,-100.00,South,173,9.0,13.0,27,0.00,,,0.00,0.000000,,2013-12-04 01:42:00,
2013-12-03 19:52:00,71.0,35.0,-100.00,South,173,9.0,13.0,27,0.00,,,0.00,0.000000,,2013-12-04 01:52:00,
2013-12-03 20:02:00,71.0,35.0,-100.00,South,173,9.0,13.0,27,0.00,,,0.00,0.000000,,2013-12-04 02:02:00,
2013-12-03 20:42:00,69.0,35.0,-100.00,SSW,193,4.0,12.0,29,0.00,,,0.00,0.000000,,2013-12-04 02:42:00,
2013-12-03 20:52:00,69.0,35.0,-100.00,SSW,193,4.0,12.0,29,0.00,,,0.00,0.000000,,2013-12-04 02:52:00,
2013-12-03 21:02:00,69.0,35.0,-100.00,SSW,193,4.0,12.0,29,0.00,,,0.00,0.000000,,2013-12-04 03:02:00,
2013-12-03 21:44:00,68.0,39.0,-100.00,SSW,194,7.0,13.0,35,0.00,,,0.00,0.000000,,2013-12-04 03:44:00,
2013-12-03 21:54:00,68.0,39.0,-100.00,SSW,194,7.0,13.0,35,0.00,,,0.00,0.000000,,2013-12-04 03:54:00,
2013-12-03 22:03:00,68.0,39.0,-100.00,SSW,194,7.0,13.0,35,0.00,,,0.00,0.000000,,2013-12-04 04:03:00,
2013-12-03 22:43:00,66.0,41.0,-100.00,South,185,6.0,15.0,40,0.00,,,0.00,0.000000,,2013-12-04 04:43:00,
2013-12-03 22:52:00,66.0,41.0,-100.00,South,185,6.0,15.0,40,0.00,,,0.00,0.000000,,2013-12-04 04:52:00,
2013-12-03 23:02:00,66.0,41.0,-100.00,South,185,6.0,15.0,40,0.00,,,0.00,0.000000,,2013-12-04 05:02:00,
2013-12-03 23:42:00,66.0,43.0,-100.00,South,187,8.0,15.0,43,0.00,,,0.00,0.000000,,2013-12-04 05:42:00,
2013-12-03 23:53:00,66.0,43.0,-100.00,South,187,8.0,15.0,43,0.00,,,0.00,0.000000,,2013-12-04 05:53:00,